This is the latest recevied weather packets stored in our database for station/object IW1CBG-3. If no packets are shown the sender has not sent any weather packets the latest 10 day(s).
| Time | Temp. | Humidity | Pressure | Rain* | Wind** | Luminosity | Snow |
|---|---|---|---|---|---|---|---|
| 1788498977 | 13.33° C | 92% | 1033.3 hPa | 0 mm | - | - | - |
| 1788498377 | 13.33° C | 92% | 1033.2 hPa | 0 mm | - | - | - |
| 1788497778 | 13.89° C | 91% | 1032.9 hPa | 0 mm | - | - | - |
| 1788497177 | 13.33° C | 92% | 1033 hPa | 0 mm | - | - | - |
| 1788496578 | 13.89° C | 91% | 1032.7 hPa | 0 mm | - | - | - |
| 1788495978 | 13.89° C | 89% | 1032.9 hPa | 0 mm | - | - | - |
| 1788495378 | 13.89° C | 91% | 1032.8 hPa | 0 mm | - | - | - |
| 1788494778 | 13.89° C | 92% | 1032.9 hPa | 0 mm | - | - | - |
| 1788494178 | 13.89° C | 92% | 1032.7 hPa | 0 mm | - | - | - |
| 1788493577 | 14.44° C | 91% | 1032.5 hPa | 0 mm | - | - | - |
| 1788492978 | 13.89° C | 91% | 1032.9 hPa | 0 mm | - | - | - |
| 1788492378 | 15° C | 89% | 1032.8 hPa | 0 mm | - | - | - |
| 1788491778 | 14.44° C | 90% | 1032.6 hPa | 0 mm | - | - | - |
| 1788491177 | 14.44° C | 92% | 1032.7 hPa | 0 mm | - | - | - |
| 1788490577 | 15° C | 90% | 1032.5 hPa | 0 mm | - | - | - |
| 1788489978 | 15.56° C | 92% | 1032.3 hPa | 0 mm | - | - | - |
| 1788489378 | 14.44° C | 92% | 1032.7 hPa | 0 mm | - | - | - |
| 1788488777 | 14.44° C | 93% | 1032.9 hPa | 0 mm | - | - | - |
| 1788488178 | 15° C | 91% | 1032.6 hPa | 0 mm | - | - | - |
| 1788487577 | 15° C | 93% | 1032.6 hPa | 0 mm | - | - | - |
| 1788486977 | 14.44° C | 93% | 1032.7 hPa | 0 mm | - | - | - |
| 1788486378 | 15.56° C | 94% | 1032.5 hPa | 0 mm | - | - | - |
| 1788485777 | 15° C | 94% | 1032.8 hPa | 0 mm | - | - | - |
| 1788485177 | 15° C | 95% | 1032.8 hPa | 0 mm | - | - | - |
| 1788484576 | 15° C | 95% | 1032.9 hPa | 0 mm | - | - | - |
* Rain latest hour (hover to see other rain measurements)
** Current wind speed in m/s (hover to see current wind gust speed)